Time;durP1;ratioP1;P1;durP2;ratioP2;P2;SDS_P1;SDS_P2;PMS_P1;PMS_P2;Temp;Humidity;BMP_temperature;BMP_pressure;BME280_temperature;BME280_humidity;BME280_pressure;Samples;Min_cycle;Max_cycle;Signal;HPM_P1;HPM_P2
2024/04/01 00:02:03;;;;;;;40.58;6.75;;;;;;;;;;5074994;28;20472;-64
2024/04/01 00:04:28;;;;;;;32.63;6.67;;;;;;;;;;5074326;28;20028;-65
2024/04/01 00:06:53;;;;;;;35.08;6.28;;;;;;;;;;5074326;28;20019;-64
2024/04/01 00:09:19;;;;;;;40.70;8.18;;;;;;;;;;5073757;28;20044;-66
2024/04/01 00:11:44;;;;;;;36.10;6.13;;;;;;;;;;5072198;28;20460;-63
2024/04/01 00:14:09;;;;;;;38.93;7.10;;;;;;;;;;5072054;28;20036;-65
2024/04/01 00:16:34;;;;;;;37.00;6.45;;;;;;;;;;5071143;28;20024;-65
2024/04/01 00:18:59;;;;;;;34.40;5.88;;;;;;;;;;5071442;28;20033;-66
2024/04/01 00:21:24;;;;;;;39.20;6.90;;;;;;;;;;5071302;28;20020;-65
2024/04/01 00:23:53;;;;;;;46.40;6.97;;;;;;;;;;5071149;28;20028;-66
2024/04/01 00:26:18;;;;;;;34.72;5.88;;;;;;;;;;5070983;28;20066;-66
2024/04/01 00:28:43;;;;;;;33.78;6.45;;;;;;;;;;5071260;28;20020;-66
2024/04/01 00:31:08;;;;;;;33.08;5.88;;;;;;;;;;5071034;28;20017;-65
2024/04/01 00:33:33;;;;;;;37.33;6.63;;;;;;;;;;5070758;28;20035;-65
2024/04/01 00:35:58;;;;;;;31.77;6.40;;;;;;;;;;5070894;28;20017;-65
2024/04/01 00:38:23;;;;;;;39.83;7.10;;;;;;;;;;5040765;28;20022;-65
2024/04/01 00:40:49;;;;;;;38.90;6.18;;;;;;;;;;4950516;28;20107;-64
2024/04/01 00:43:14;;;;;;;33.90;5.95;;;;;;;;;;4950145;28;20376;-66
2024/04/01 00:45:43;;;;;;;44.22;6.80;;;;;;;;;;4950588;28;20028;-64
2024/04/01 00:48:09;;;;;;;49.58;6.05;;;;;;;;;;4951173;28;20038;-65
2024/04/01 00:50:36;;;;;;;38.65;6.38;;;;;;;;;;4951294;28;20031;-65
2024/04/01 00:53:01;;;;;;;35.03;5.55;;;;;;;;;;4956704;28;20024;-65
2024/04/01 00:55:26;;;;;;;32.37;5.77;;;;;;;;;;4973029;28;20073;-64
2024/04/01 00:57:52;;;;;;;35.47;6.00;;;;;;;;;;4958447;28;20047;-66
2024/04/01 01:00:17;;;;;;;32.72;5.80;;;;;;;;;;4970958;28;20016;-66
2024/04/01 01:02:43;;;;;;;38.50;6.07;;;;;;;;;;4957440;28;20086;-64
2024/04/01 01:05:09;;;;;;;35.45;5.85;;;;;;;;;;4966601;28;20034;-65
2024/04/01 01:07:35;;;;;;;35.42;5.65;;;;;;;;;;4965122;28;20475;-64
2024/04/01 01:10:00;;;;;;;33.08;5.93;;;;;;;;;;4953845;28;20070;-65
2024/04/01 01:12:25;;;;;;;35.60;5.30;;;;;;;;;;4953595;28;20096;-65
2024/04/01 01:14:50;;;;;;;40.30;6.13;;;;;;;;;;4953227;28;20050;-66
2024/04/01 01:17:15;;;;;;;38.87;5.37;;;;;;;;;;4953494;28;20153;-64
2024/04/01 01:19:40;;;;;;;41.87;5.73;;;;;;;;;;4953324;28;20442;-65
2024/04/01 01:22:06;;;;;;;26.63;5.60;;;;;;;;;;4953531;28;20023;-65
2024/04/01 01:24:32;;;;;;;33.35;6.10;;;;;;;;;;5062825;28;20032;-65
2024/04/01 01:26:57;;;;;;;36.00;5.47;;;;;;;;;;5073152;28;20070;-63
2024/04/01 01:29:22;;;;;;;33.90;5.47;;;;;;;;;;5074896;28;20455;-66
2024/04/01 01:31:48;;;;;;;38.90;5.97;;;;;;;;;;5074764;28;20033;-64
2024/04/01 01:34:13;;;;;;;31.60;5.63;;;;;;;;;;5074975;28;20016;-65
2024/04/01 01:36:38;;;;;;;33.85;5.40;;;;;;;;;;5074773;28;20031;-64
2024/04/01 01:39:05;;;;;;;40.23;5.03;;;;;;;;;;5075341;28;20028;-63
2024/04/01 01:41:30;;;;;;;36.20;5.65;;;;;;;;;;5075726;28;20473;-66
2024/04/01 01:43:55;;;;;;;34.05;4.78;;;;;;;;;;5056950;28;20039;-64
2024/04/01 01:46:21;;;;;;;47.63;5.85;;;;;;;;;;4953791;28;20395;-65
2024/04/01 01:48:46;;;;;;;36.97;5.82;;;;;;;;;;4954984;28;20057;-63
2024/04/01 01:51:11;;;;;;;36.78;4.97;;;;;;;;;;4954404;28;20033;-67
2024/04/01 01:53:36;;;;;;;36.85;4.82;;;;;;;;;;4952915;28;20038;-64
2024/04/01 01:56:01;;;;;;;35.03;5.32;;;;;;;;;;5068914;28;20037;-63
2024/04/01 01:58:26;;;;;;;33.10;5.72;;;;;;;;;;5073195;28;20056;-64
2024/04/01 02:00:52;;;;;;;40.45;5.45;;;;;;;;;;5074761;28;20104;-63
2024/04/01 02:03:17;;;;;;;38.40;6.28;;;;;;;;;;5074705;28;20081;-64
2024/04/01 02:05:42;;;;;;;30.83;5.35;;;;;;;;;;5074165;28;20033;-63
2024/04/01 02:08:07;;;;;;;31.70;5.63;;;;;;;;;;5074782;28;20027;-64
2024/04/01 02:10:35;;;;;;;39.85;5.13;;;;;;;;;;5078183;28;20043;-64
2024/04/01 02:13:02;;;;;;;37.58;5.28;;;;;;;;;;5074018;28;20420;-69
2024/04/01 02:15:27;;;;;;;35.30;5.38;;;;;;;;;;5078433;28;20020;-66
2024/04/01 02:17:52;;;;;;;40.58;5.78;;;;;;;;;;5083649;28;20047;-64
2024/04/01 02:20:17;;;;;;;47.03;6.07;;;;;;;;;;5075843;28;20024;-64
2024/04/01 02:22:45;;;;;;;30.93;4.87;;;;;;;;;;5073295;28;20028;-64
2024/04/01 02:25:17;;;;;;;44.13;5.25;;;;;;;;;;5073629;28;20029;-63
2024/04/01 02:27:43;;;;;;;40.85;5.20;;;;;;;;;;5073346;28;20021;-64
2024/04/01 02:30:08;;;;;;;44.05;5.35;;;;;;;;;;5071843;28;20039;-65
2024/04/01 02:32:33;;;;;;;39.13;5.43;;;;;;;;;;5073299;28;20016;-64
2024/04/01 02:34:58;;;;;;;33.10;4.57;;;;;;;;;;5073448;28;20423;-65
2024/04/01 02:37:24;;;;;;;35.55;5.05;;;;;;;;;;5071828;28;20031;-64
2024/04/01 02:39:49;;;;;;;36.92;5.32;;;;;;;;;;5073029;28;20024;-63
2024/04/01 02:42:14;;;;;;;36.45;5.00;;;;;;;;;;5073228;28;20532;-64
2024/04/01 02:44:39;;;;;;;41.53;5.88;;;;;;;;;;5072997;28;20043;-64
2024/04/01 02:47:04;;;;;;;36.60;5.47;;;;;;;;;;5073662;28;20028;-65
2024/04/01 02:49:30;;;;;;;36.73;6.00;;;;;;;;;;5060409;28;20032;-66
2024/04/01 02:51:55;;;;;;;46.20;5.55;;;;;;;;;;4955740;28;20042;-64
2024/04/01 02:54:20;;;;;;;44.40;5.55;;;;;;;;;;4952538;28;20505;-64
2024/04/01 02:56:45;;;;;;;36.63;5.43;;;;;;;;;;4952934;28;20134;-65
2024/04/01 02:59:11;;;;;;;39.85;5.40;;;;;;;;;;4953442;28;20447;-65
2024/04/01 03:01:41;;;;;;;41.70;5.83;;;;;;;;;;4969046;28;20099;-65
2024/04/01 03:04:06;;;;;;;36.75;4.80;;;;;;;;;;4973589;28;20281;-65
2024/04/01 03:06:31;;;;;;;43.70;5.03;;;;;;;;;;4971389;28;20061;-64
2024/04/01 03:08:56;;;;;;;40.57;5.67;;;;;;;;;;4970960;28;20374;-65
2024/04/01 03:11:21;;;;;;;35.40;4.90;;;;;;;;;;4970778;28;20026;-65
2024/04/01 03:13:48;;;;;;;42.13;4.70;;;;;;;;;;4970804;28;20030;-65
2024/04/01 03:16:14;;;;;;;37.35;4.93;;;;;;;;;;4969411;28;20026;-65
2024/04/01 03:18:41;;;;;;;36.15;4.53;;;;;;;;;;4971018;28;20106;-65
2024/04/01 03:21:08;;;;;;;41.13;5.75;;;;;;;;;;4971604;28;20023;-65
2024/04/01 03:23:33;;;;;;;33.22;5.03;;;;;;;;;;4972188;28;20041;-64
2024/04/01 03:25:58;;;;;;;35.73;4.93;;;;;;;;;;4970246;28;20023;-64
2024/04/01 03:28:23;;;;;;;29.13;4.60;;;;;;;;;;4970377;28;20072;-65
2024/04/01 03:30:48;;;;;;;43.10;5.38;;;;;;;;;;4970607;28;20475;-66
2024/04/01 03:33:13;;;;;;;38.58;5.05;;;;;;;;;;4974798;28;20022;-65
2024/04/01 03:35:39;;;;;;;41.85;5.03;;;;;;;;;;4976059;28;20068;-66
2024/04/01 03:38:04;;;;;;;38.28;4.82;;;;;;;;;;4972040;28;20027;-63
2024/04/01 03:40:29;;;;;;;36.07;5.30;;;;;;;;;;4971114;28;20106;-65
2024/04/01 03:42:55;;;;;;;40.13;5.63;;;;;;;;;;4969265;28;20030;-65
2024/04/01 03:45:20;;;;;;;31.20;4.73;;;;;;;;;;4965170;28;20019;-66
2024/04/01 03:47:45;;;;;;;29.60;4.75;;;;;;;;;;4967205;28;20368;-65
2024/04/01 03:50:11;;;;;;;35.53;4.97;;;;;;;;;;4970383;28;20394;-66
2024/04/01 03:52:36;;;;;;;34.83;4.78;;;;;;;;;;4970247;28;20031;-63
2024/04/01 03:55:02;;;;;;;38.40;4.82;;;;;;;;;;4969861;28;20123;-64
2024/04/01 03:57:27;;;;;;;31.53;5.57;;;;;;;;;;4970117;28;20054;-66
2024/04/01 03:59:52;;;;;;;37.75;5.43;;;;;;;;;;4969997;28;20049;-64
2024/04/01 04:02:17;;;;;;;35.97;6.10;;;;;;;;;;4968698;28;20015;-64
2024/04/01 04:04:42;;;;;;;26.95;4.10;;;;;;;;;;4969549;28;20057;-65
2024/04/01 04:07:07;;;;;;;28.80;4.67;;;;;;;;;;4970358;28;20058;-65
2024/04/01 04:09:32;;;;;;;26.73;4.18;;;;;;;;;;4969940;28;20474;-64
2024/04/01 04:11:58;;;;;;;31.05;4.43;;;;;;;;;;4970335;28;20116;-65
2024/04/01 04:14:26;;;;;;;33.72;4.57;;;;;;;;;;4970546;28;20030;-63
2024/04/01 04:16:52;;;;;;;23.92;4.47;;;;;;;;;;4969870;28;20092;-65
2024/04/01 04:19:18;;;;;;;26.88;4.13;;;;;;;;;;4975545;28;20027;-64
2024/04/01 04:21:43;;;;;;;31.67;3.83;;;;;;;;;;5074900;28;20017;-64
2024/04/01 04:24:10;;;;;;;28.33;3.97;;;;;;;;;;5075806;28;20035;-64
2024/04/01 04:26:35;;;;;;;;;;;;;;;;;;5084242;28;20429;-66
2024/04/01 04:29:01;;;;;;;29.20;4.05;;;;;;;;;;5077008;28;19905;-63
2024/04/01 04:31:27;;;;;;;33.38;4.85;;;;;;;;;;5076277;28;20029;-64
2024/04/01 04:33:52;;;;;;;29.45;4.15;;;;;;;;;;5080275;28;20551;-66
2024/04/01 04:36:20;;;;;;;29.75;4.60;;;;;;;;;;5087937;28;20027;-63
2024/04/01 04:38:47;;;;;;;22.05;3.95;;;;;;;;;;5085856;28;20032;-67
2024/04/01 04:41:12;;;;;;;24.65;3.58;;;;;;;;;;5081129;28;20090;-67
2024/04/01 04:43:38;;;;;;;25.37;4.43;;;;;;;;;;5078222;28;20024;-67
2024/04/01 04:46:03;;;;;;;22.80;3.22;;;;;;;;;;5071294;28;20489;-64
2024/04/01 04:48:28;;;;;;;23.97;3.60;;;;;;;;;;5071809;28;20066;-66
2024/04/01 04:50:53;;;;;;;30.97;4.20;;;;;;;;;;5071493;28;20067;-64
2024/04/01 04:53:18;;;;;;;25.67;4.22;;;;;;;;;;5071229;28;20446;-64
2024/04/01 04:55:44;;;;;;;26.25;4.30;;;;;;;;;;5072342;28;20606;-64
2024/04/01 04:58:09;;;;;;;24.87;3.40;;;;;;;;;;5072512;28;20082;-65
2024/04/01 05:00:34;;;;;;;32.30;3.77;;;;;;;;;;5071695;28;20028;-65
2024/04/01 05:03:00;;;;;;;18.45;2.92;;;;;;;;;;5075364;28;21465;-63
2024/04/01 05:05:25;;;;;;;23.60;3.87;;;;;;;;;;5077317;28;20149;-63
2024/04/01 05:07:50;;;;;;;25.15;3.78;;;;;;;;;;5033855;28;20031;-65
2024/04/01 05:10:16;;;;;;;25.70;3.78;;;;;;;;;;4950764;28;20038;-64
2024/04/01 05:12:42;;;;;;;21.77;3.40;;;;;;;;;;4950150;28;20433;-66
2024/04/01 05:15:07;;;;;;;19.45;3.38;;;;;;;;;;4963329;28;20179;-64
2024/04/01 05:17:32;;;;;;;25.85;3.88;;;;;;;;;;4949947;29;20066;-66
2024/04/01 05:19:58;;;;;;;23.17;3.42;;;;;;;;;;5006344;28;20022;-67
2024/04/01 05:22:25;;;;;;;24.60;3.75;;;;;;;;;;4988268;28;20111;-65
2024/04/01 05:24:50;;;;;;;25.23;3.75;;;;;;;;;;4988523;28;20030;-64
2024/04/01 05:27:15;;;;;;;20.07;3.00;;;;;;;;;;4989138;28;20023;-64
2024/04/01 05:29:40;;;;;;;22.73;3.07;;;;;;;;;;4991108;28;20023;-68
2024/04/01 05:32:06;;;;;;;24.70;3.28;;;;;;;;;;4992525;28;20050;-64
2024/04/01 05:34:37;;;;;;;29.87;4.13;;;;;;;;;;4993715;28;20060;-66
2024/04/01 05:37:02;;;;;;;19.20;3.45;;;;;;;;;;4990965;28;20026;-63
2024/04/01 05:39:27;;;;;;;22.40;3.73;;;;;;;;;;4988604;28;20053;-64
2024/04/01 05:41:53;;;;;;;27.92;3.13;;;;;;;;;;4988702;28;20043;-64
2024/04/01 05:44:19;;;;;;;21.55;3.33;;;;;;;;;;4987325;28;20441;-65
2024/04/01 05:46:44;;;;;;;21.58;3.08;;;;;;;;;;4988251;28;20022;-64
2024/04/01 05:49:09;;;;;;;18.03;2.67;;;;;;;;;;4972317;28;20116;-65
2024/04/01 05:51:34;;;;;;;22.00;3.03;;;;;;;;;;4972062;28;20483;-63
2024/04/01 05:53:59;;;;;;;20.58;2.63;;;;;;;;;;4961150;28;20509;-64
2024/04/01 05:56:24;;;;;;;21.52;2.88;;;;;;;;;;4952818;28;20031;-65
2024/04/01 05:58:49;;;;;;;17.83;2.60;;;;;;;;;;4953132;28;20019;-67
2024/04/01 06:01:15;;;;;;;15.50;3.03;;;;;;;;;;4956366;28;20491;-64
2024/04/01 06:03:40;;;;;;;19.00;2.40;;;;;;;;;;4970570;28;20066;-63
2024/04/01 06:06:05;;;;;;;24.23;3.28;;;;;;;;;;4969232;28;20035;-63
2024/04/01 06:08:31;;;;;;;26.27;3.20;;;;;;;;;;4971794;28;20482;-66
2024/04/01 06:10:56;;;;;;;;;;;;;;;;;;4972733;28;20429;-66
2024/04/01 06:13:22;;;;;;;16.35;3.17;;;;;;;;;;4971304;28;19992;-66
2024/04/01 06:15:47;;;;;;;21.88;2.67;;;;;;;;;;4965814;28;20027;-65
2024/04/01 06:18:12;;;;;;;19.10;2.85;;;;;;;;;;4952596;28;20093;-64
2024/04/01 06:20:37;;;;;;;21.30;3.00;;;;;;;;;;4952286;28;20050;-66
2024/04/01 06:23:02;;;;;;;24.67;3.42;;;;;;;;;;4952104;28;20093;-64
2024/04/01 06:25:28;;;;;;;21.20;2.73;;;;;;;;;;4952107;28;20051;-67
2024/04/01 06:27:53;;;;;;;26.07;2.70;;;;;;;;;;4952360;28;20830;-65
2024/04/01 06:30:18;;;;;;;20.13;2.78;;;;;;;;;;4952442;28;20475;-65
2024/04/01 06:32:43;;;;;;;17.67;2.38;;;;;;;;;;5045127;28;20473;-66
2024/04/01 06:35:08;;;;;;;18.67;2.40;;;;;;;;;;5073369;28;20017;-65
2024/04/01 06:37:34;;;;;;;21.60;2.83;;;;;;;;;;5073648;28;20024;-63
2024/04/01 06:39:59;;;;;;;21.05;2.75;;;;;;;;;;5073604;28;20024;-65
2024/04/01 06:42:24;;;;;;;18.90;2.70;;;;;;;;;;5027190;28;20402;-66
2024/04/01 06:44:50;;;;;;;17.00;2.60;;;;;;;;;;4960232;28;20067;-65
2024/04/01 06:47:15;;;;;;;19.40;2.50;;;;;;;;;;4971677;28;20026;-64
2024/04/01 06:49:40;;;;;;;15.57;2.47;;;;;;;;;;4969922;28;20031;-65
2024/04/01 06:52:05;;;;;;;20.63;2.47;;;;;;;;;;4969513;28;20030;-67
2024/04/01 06:54:30;;;;;;;17.03;2.30;;;;;;;;;;4952742;28;20595;-66
2024/04/01 06:56:56;;;;;;;17.52;2.78;;;;;;;;;;4962233;28;20030;-65
2024/04/01 06:59:21;;;;;;;18.40;2.60;;;;;;;;;;4968317;28;20054;-67
2024/04/01 07:01:46;;;;;;;20.30;2.50;;;;;;;;;;4969865;28;20018;-64
2024/04/01 07:04:11;;;;;;;19.67;3.28;;;;;;;;;;4967108;28;20488;-64
2024/04/01 07:06:37;;;;;;;19.05;2.45;;;;;;;;;;4973111;28;20023;-65
2024/04/01 07:09:03;;;;;;;16.88;2.10;;;;;;;;;;4972439;28;20046;-65
2024/04/01 07:11:28;;;;;;;21.63;2.75;;;;;;;;;;4973621;28;20019;-65
2024/04/01 07:13:53;;;;;;;15.50;2.03;;;;;;;;;;4971101;28;20039;-65
2024/04/01 07:16:18;;;;;;;12.90;2.00;;;;;;;;;;5015148;28;20036;-66
2024/04/01 07:18:43;;;;;;;12.48;2.15;;;;;;;;;;5072515;28;20548;-66
2024/04/01 07:21:09;;;;;;;17.77;2.67;;;;;;;;;;5072510;28;20063;-64
2024/04/01 07:23:34;;;;;;;13.73;2.37;;;;;;;;;;5072327;28;20028;-65
2024/04/01 07:26:00;;;;;;;15.52;2.40;;;;;;;;;;5043665;28;20043;-65
2024/04/01 07:28:25;;;;;;;12.53;2.07;;;;;;;;;;4970789;28;20019;-65
2024/04/01 07:30:50;;;;;;;11.87;1.87;;;;;;;;;;4962001;28;20027;-65
2024/04/01 07:33:15;;;;;;;22.52;2.83;;;;;;;;;;4968927;28;20113;-64
2024/04/01 07:35:40;;;;;;;17.83;2.20;;;;;;;;;;4971525;28;20475;-69
2024/04/01 07:38:06;;;;;;;16.33;2.67;;;;;;;;;;4971129;28;20080;-67
2024/04/01 07:40:31;;;;;;;11.33;2.20;;;;;;;;;;4970878;28;20070;-64
2024/04/01 07:42:56;;;;;;;14.37;2.70;;;;;;;;;;5007206;28;20021;-66
2024/04/01 07:45:21;;;;;;;21.05;2.75;;;;;;;;;;5067365;28;20059;-66
2024/04/01 07:47:46;;;;;;;13.27;2.77;;;;;;;;;;5071842;28;20354;-66
2024/04/01 07:50:11;;;;;;;13.98;2.28;;;;;;;;;;5072062;28;20029;-66
2024/04/01 07:52:37;;;;;;;13.98;2.50;;;;;;;;;;5071970;28;20396;-65
2024/04/01 07:55:02;;;;;;;13.85;1.85;;;;;;;;;;4996880;28;20036;-66
2024/04/01 07:57:31;;;;;;;14.13;2.20;;;;;;;;;;5010595;28;20081;-66
2024/04/01 07:59:56;;;;;;;15.32;1.95;;;;;;;;;;4970135;28;20723;-65
2024/04/01 08:02:22;;;;;;;18.88;2.65;;;;;;;;;;4976761;28;20041;-65
2024/04/01 08:04:48;;;;;;;12.48;2.00;;;;;;;;;;5011762;28;20038;-66
2024/04/01 08:07:14;;;;;;;17.70;2.50;;;;;;;;;;4968781;28;20023;-65
2024/04/01 08:09:39;;;;;;;15.30;2.45;;;;;;;;;;4970413;28;20022;-64
2024/04/01 08:12:04;;;;;;;15.90;1.87;;;;;;;;;;4955900;28;20094;-64
2024/04/01 08:14:30;;;;;;;16.30;2.10;;;;;;;;;;4988992;28;20042;-66
2024/04/01 08:16:55;;;;;;;21.77;3.00;;;;;;;;;;5070966;28;20481;-67
2024/04/01 08:19:20;;;;;;;13.65;2.42;;;;;;;;;;5063456;28;20044;-66
2024/04/01 08:21:45;;;;;;;18.80;2.47;;;;;;;;;;4971542;28;20399;-65
2024/04/01 08:24:10;;;;;;;10.77;1.80;;;;;;;;;;4958725;28;20035;-67
2024/04/01 08:26:35;;;;;;;13.82;2.17;;;;;;;;;;4969853;28;20045;-64
2024/04/01 08:29:00;;;;;;;14.83;2.03;;;;;;;;;;4969904;28;20092;-68
2024/04/01 08:31:26;;;;;;;14.35;2.05;;;;;;;;;;4991611;28;20380;-65
2024/04/01 08:33:51;;;;;;;18.50;2.50;;;;;;;;;;5071172;28;20341;-65
2024/04/01 08:36:17;;;;;;;15.48;2.30;;;;;;;;;;5007689;28;20019;-65
2024/04/01 08:38:42;;;;;;;13.82;2.00;;;;;;;;;;4950539;28;20042;-64
2024/04/01 08:41:12;;;;;;;20.08;2.10;;;;;;;;;;4950833;28;20031;-66
2024/04/01 08:43:40;;;;;;;15.68;1.90;;;;;;;;;;4950451;28;20030;-65
2024/04/01 08:46:06;;;;;;;15.82;2.20;;;;;;;;;;4949841;28;20046;-64
2024/04/01 08:48:31;;;;;;;12.30;2.17;;;;;;;;;;5059593;28;20121;-65
2024/04/01 08:51:02;;;;;;;16.25;2.65;;;;;;;;;;4967059;28;21061;-68
2024/04/01 08:53:46;;;;;;;14.75;1.88;;;;;;;;;;4969471;28;20062;-63
2024/04/01 08:56:11;;;;;;;;;;;;;;;;;;4967924;28;20019;-67
2024/04/01 08:58:36;;;;;;;12.97;2.10;;;;;;;;;;4970638;28;19917;-65
2024/04/01 09:01:01;;;;;;;12.43;2.30;;;;;;;;;;4970786;28;20423;-66
2024/04/01 09:03:26;;;;;;;17.33;2.28;;;;;;;;;;4961121;28;20678;-64
2024/04/01 09:05:54;;;;;;;14.73;1.90;;;;;;;;;;4959134;28;20046;-65
2024/04/01 09:08:19;;;;;;;16.27;2.17;;;;;;;;;;4970059;28;20088;-65
2024/04/01 09:10:44;;;;;;;19.20;2.37;;;;;;;;;;4970514;28;20023;-67
2024/04/01 09:13:13;;;;;;;37.03;2.67;;;;;;;;;;4999097;28;20077;-64
2024/04/01 09:15:38;;;;;;;14.23;2.10;;;;;;;;;;5072392;28;20558;-64
2024/04/01 09:18:04;;;;;;;14.10;2.25;;;;;;;;;;5072079;28;20028;-65
2024/04/01 09:20:31;;;;;;;19.23;2.43;;;;;;;;;;5068760;28;20025;-67
2024/04/01 09:22:56;;;;;;;15.00;1.95;;;;;;;;;;4988267;28;20101;-64
2024/04/01 09:25:21;;;;;;;12.48;2.15;;;;;;;;;;4954431;28;20119;-66
2024/04/01 09:27:47;;;;;;;15.13;2.15;;;;;;;;;;4953253;28;20031;-64
2024/04/01 09:30:12;;;;;;;16.55;2.63;;;;;;;;;;4952826;29;20032;-65
2024/04/01 09:32:38;;;;;;;16.80;2.20;;;;;;;;;;4952737;29;20024;-66
2024/04/01 09:35:03;;;;;;;15.65;2.00;;;;;;;;;;4952815;29;20426;-67
2024/04/01 09:37:28;;;;;;;15.25;2.22;;;;;;;;;;4953022;29;20484;-66
2024/04/01 09:39:54;;;;;;;19.42;2.67;;;;;;;;;;4952803;28;20494;-66
2024/04/01 09:42:19;;;;;;;13.50;2.60;;;;;;;;;;4953005;28;20051;-66
2024/04/01 09:44:46;;;;;;;12.50;2.50;;;;;;;;;;4952501;28;20110;-67
2024/04/01 09:47:11;;;;;;;18.58;2.45;;;;;;;;;;4952821;28;20085;-66
2024/04/01 09:49:39;;;;;;;14.82;2.60;;;;;;;;;;4952673;28;20471;-66
2024/04/01 09:52:05;;;;;;;16.23;2.08;;;;;;;;;;4953129;29;20031;-67
2024/04/01 09:54:30;;;;;;;16.80;2.17;;;;;;;;;;4953700;29;20046;-67
2024/04/01 09:57:08;;;;;;;14.43;2.10;;;;;;;;;;4955191;29;20023;-66
2024/04/01 09:59:54;;;;;;;13.45;2.00;;;;;;;;;;4956523;28;20047;-64
2024/04/01 10:02:25;;;;;;;18.33;2.30;;;;;;;;;;4977019;28;20023;-65
2024/04/01 10:05:05;;;;;;;14.30;2.38;;;;;;;;;;4976519;28;20027;-66
2024/04/01 10:07:58;;;;;;;12.40;1.80;;;;;;;;;;4974609;28;20490;-65
2024/04/01 10:10:39;;;;;;;9.70;1.52;;;;;;;;;;4978932;28;20057;-65
2024/04/01 10:13:16;;;;;;;13.88;2.22;;;;;;;;;;5053515;28;20055;-65
2024/04/01 10:15:57;;;;;;;13.23;1.75;;;;;;;;;;5078842;28;20025;-65
2024/04/01 10:18:35;;;;;;;15.80;2.65;;;;;;;;;;5079115;28;20107;-66
2024/04/01 10:21:03;;;;;;;15.13;1.98;;;;;;;;;;5081200;28;20039;-69
2024/04/01 10:23:43;;;;;;;13.10;2.10;;;;;;;;;;5080963;28;20029;-65
2024/04/01 10:26:08;;;;;;;15.13;2.22;;;;;;;;;;5076628;28;20463;-65
2024/04/01 10:28:45;;;;;;;13.98;1.98;;;;;;;;;;5074709;28;20399;-67
2024/04/01 10:31:38;;;;;;;15.77;2.15;;;;;;;;;;4974011;28;20022;-64
2024/04/01 10:34:22;;;;;;;17.15;2.00;;;;;;;;;;4960280;28;20048;-65
2024/04/01 10:36:58;;;;;;;18.75;2.10;;;;;;;;;;4962419;28;20023;-66
2024/04/01 10:39:59;;;;;;;12.43;1.90;;;;;;;;;;4954817;28;20077;-64
2024/04/01 10:42:34;;;;;;;14.15;1.88;;;;;;;;;;5033830;28;20017;-64
2024/04/01 10:45:05;;;;;;;14.32;1.85;;;;;;;;;;4969598;28;20425;-65
2024/04/01 10:47:49;;;;;;;14.63;2.00;;;;;;;;;;4959500;28;20079;-64
2024/04/01 10:50:14;;;;;;;15.35;2.10;;;;;;;;;;4959787;29;20027;-63
2024/04/01 10:52:48;;;;;;;13.18;2.13;;;;;;;;;;4971056;28;20023;-66
2024/04/01 10:55:32;;;;;;;14.85;2.38;;;;;;;;;;4952496;28;20065;-67
2024/04/01 10:58:27;;;;;;;17.38;2.47;;;;;;;;;;4952107;28;20386;-65
2024/04/01 11:01:10;;;;;;;12.85;2.17;;;;;;;;;;4969420;28;20027;-65
2024/04/01 11:03:35;;;;;;;13.18;2.53;;;;;;;;;;4952746;28;20070;-65
2024/04/01 11:06:13;;;;;;;11.32;2.03;;;;;;;;;;4959778;28;20058;-66
2024/04/01 11:08:46;;;;;;;12.05;2.05;;;;;;;;;;4970021;28;20548;-66
2024/04/01 11:11:30;;;;;;;12.52;2.05;;;;;;;;;;5022971;28;20025;-66
2024/04/01 11:13:55;;;;;;;12.57;2.05;;;;;;;;;;5069112;28;20068;-64
2024/04/01 11:16:22;;;;;;;13.57;2.30;;;;;;;;;;5073029;28;20071;-67
2024/04/01 11:18:59;;;;;;;14.73;2.40;;;;;;;;;;5071747;28;20033;-66
2024/04/01 11:21:37;;;;;;;14.65;2.10;;;;;;;;;;5072667;28;20032;-63
2024/04/01 11:24:21;;;;;;;15.68;2.53;;;;;;;;;;4978192;28;20031;-65
2024/04/01 11:27:09;;;;;;;12.45;2.00;;;;;;;;;;4951682;28;20513;-65
2024/04/01 11:29:35;;;;;;;15.73;2.10;;;;;;;;;;4980149;28;20052;-65
2024/04/01 11:32:03;;;;;;;17.38;2.33;;;;;;;;;;4951549;28;20085;-66
2024/04/01 11:34:47;;;;;;;12.50;1.98;;;;;;;;;;4952402;28;20402;-64
2024/04/01 11:37:31;;;;;;;12.63;2.00;;;;;;;;;;4952163;28;20483;-65
2024/04/01 11:39:58;;;;;;;18.73;2.70;;;;;;;;;;4951999;28;20369;-65
2024/04/01 11:42:26;;;;;;;12.82;2.22;;;;;;;;;;4951751;28;20475;-64
2024/04/01 11:44:52;;;;;;;16.80;2.13;;;;;;;;;;4952026;28;20035;-65
2024/04/01 11:47:19;;;;;;;11.98;2.22;;;;;;;;;;4965833;28;20014;-65
2024/04/01 11:49:44;;;;;;;12.63;2.13;;;;;;;;;;4967844;28;20023;-65
2024/04/01 11:52:13;;;;;;;13.30;2.00;;;;;;;;;;4968924;28;20122;-64
2024/04/01 11:54:38;;;;;;;14.00;1.98;;;;;;;;;;4971189;28;20465;-65
2024/04/01 11:57:04;;;;;;;12.73;2.00;;;;;;;;;;4974288;28;20026;-64
2024/04/01 11:59:30;;;;;;;15.23;2.47;;;;;;;;;;4974503;28;20080;-65
2024/04/01 12:01:55;;;;;;;12.52;1.95;;;;;;;;;;4972306;28;20019;-65
2024/04/01 12:04:21;;;;;;;16.23;1.90;;;;;;;;;;4974048;28;20529;-67
2024/04/01 12:06:47;;;;;;;10.50;2.15;;;;;;;;;;4973339;28;20483;-65
2024/04/01 12:09:13;;;;;;;12.88;1.90;;;;;;;;;;4975022;28;20056;-65
2024/04/01 12:11:42;;;;;;;12.35;1.90;;;;;;;;;;4972119;28;20054;-64
2024/04/01 12:14:09;;;;;;;9.98;1.88;;;;;;;;;;4970922;28;20043;-64
2024/04/01 12:16:34;;;;;;;12.00;2.00;;;;;;;;;;4969028;28;20123;-65
2024/04/01 12:19:01;;;;;;;10.20;2.17;;;;;;;;;;4969543;28;20061;-63
2024/04/01 12:21:28;;;;;;;11.75;1.67;;;;;;;;;;4970525;28;20050;-64
2024/04/01 12:23:54;;;;;;;12.07;1.67;;;;;;;;;;4970153;28;20042;-66
2024/04/01 12:26:19;;;;;;;5.28;1.38;;;;;;;;;;4971123;28;20026;-65
2024/04/01 12:28:45;;;;;;;8.73;1.75;;;;;;;;;;4972389;28;20031;-65
2024/04/01 12:31:15;;;;;;;5.45;1.25;;;;;;;;;;4970955;28;20023;-64
2024/04/01 12:33:41;;;;;;;9.93;1.60;;;;;;;;;;4971605;28;20033;-64
2024/04/01 12:36:06;;;;;;;;;;;;;;;;;;4970743;28;20127;-65
2024/04/01 12:38:33;;;;;;;11.17;1.77;;;;;;;;;;4972416;28;19984;-65
2024/04/01 12:40:59;;;;;;;8.48;1.60;;;;;;;;;;4971897;28;20094;-64
2024/04/01 12:43:26;;;;;;;8.55;1.77;;;;;;;;;;4971305;28;20120;-63
2024/04/01 12:45:52;;;;;;;13.30;1.63;;;;;;;;;;4971175;28;20025;-64
2024/04/01 12:48:17;;;;;;;8.27;1.40;;;;;;;;;;4971594;28;20018;-65
2024/04/01 12:50:44;;;;;;;10.93;1.60;;;;;;;;;;4958106;28;20023;-64
2024/04/01 12:53:25;;;;;;;7.07;1.50;;;;;;;;;;4953875;28;20110;-64
2024/04/01 12:56:10;;;;;;;10.05;1.50;;;;;;;;;;4967181;28;20073;-64
2024/04/01 12:58:59;;;;;;;10.05;1.67;;;;;;;;;;4964665;28;20038;-66
2024/04/01 13:01:43;;;;;;;10.30;1.60;;;;;;;;;;4986547;28;20387;-64
2024/04/01 13:04:28;;;;;;;6.65;1.30;;;;;;;;;;4951432;28;20035;-66
2024/04/01 13:06:58;;;;;;;8.50;1.40;;;;;;;;;;4961634;28;20034;-65
2024/04/01 13:09:27;;;;;;;8.05;1.63;;;;;;;;;;5063200;28;20278;-66
2024/04/01 13:12:11;;;;;;;7.53;1.23;;;;;;;;;;5072104;28;20070;-66
2024/04/01 13:14:53;;;;;;;7.28;1.30;;;;;;;;;;5071950;28;20029;-65
2024/04/01 13:17:21;;;;;;;7.75;1.20;;;;;;;;;;5070460;28;20493;-65
2024/04/01 13:19:47;;;;;;;8.23;1.55;;;;;;;;;;5071969;28;20150;-65
2024/04/01 13:22:33;;;;;;;8.50;1.30;;;;;;;;;;5073135;28;20070;-65
2024/04/01 13:24:59;;;;;;;7.85;1.40;;;;;;;;;;5073482;28;20504;-66
2024/04/01 13:27:44;;;;;;;7.88;1.52;;;;;;;;;;5073744;28;20023;-66
2024/04/01 13:30:12;;;;;;;6.90;1.40;;;;;;;;;;5084583;28;20044;-65
2024/04/01 13:32:55;;;;;;;9.07;1.42;;;;;;;;;;5082951;28;20027;-64
2024/04/01 13:35:28;;;;;;;14.07;1.73;;;;;;;;;;5086320;28;20035;-66
2024/04/01 13:38:05;;;;;;;9.43;1.98;;;;;;;;;;5086006;28;20024;-65
2024/04/01 13:40:41;;;;;;;8.63;1.20;;;;;;;;;;5086117;28;20108;-65
2024/04/01 13:43:06;;;;;;;6.40;1.38;;;;;;;;;;5071456;28;20096;-64
2024/04/01 13:45:37;;;;;;;7.37;1.53;;;;;;;;;;4975465;28;20515;-65
2024/04/01 13:48:17;;;;;;;5.55;1.20;;;;;;;;;;4972622;28;20018;-65
2024/04/01 13:50:48;;;;;;;9.80;1.27;;;;;;;;;;4967574;28;20435;-65
2024/04/01 13:53:27;;;;;;;3.50;0.88;;;;;;;;;;4987104;28;20154;-66
2024/04/01 13:55:58;;;;;;;5.22;0.93;;;;;;;;;;5071453;28;20532;-65
2024/04/01 13:58:34;;;;;;;3.42;0.77;;;;;;;;;;5072499;28;20036;-65
2024/04/01 14:01:02;;;;;;;3.13;0.68;;;;;;;;;;5017089;28;20095;-64
2024/04/01 14:03:46;;;;;;;4.70;0.70;;;;;;;;;;4966876;28;20031;-65
2024/04/01 14:06:17;;;;;;;5.22;0.80;;;;;;;;;;4968212;28;20472;-63
2024/04/01 14:08:49;;;;;;;4.20;0.70;;;;;;;;;;5029509;28;20448;-64
2024/04/01 14:11:21;;;;;;;3.38;0.75;;;;;;;;;;4970945;28;20030;-66
2024/04/01 14:13:46;;;;;;;2.90;0.73;;;;;;;;;;4972212;28;20429;-65
2024/04/01 14:16:24;;;;;;;4.47;0.90;;;;;;;;;;5024851;28;20047;-66
2024/04/01 14:19:07;;;;;;;2.80;0.50;;;;;;;;;;5074148;28;20106;-65
2024/04/01 14:21:33;;;;;;;1.88;0.40;;;;;;;;;;5072841;28;20024;-64
2024/04/01 14:23:58;;;;;;;1.38;0.38;;;;;;;;;;5072781;28;20400;-65
2024/04/01 14:26:24;;;;;;;7.27;0.50;;;;;;;;;;5005366;28;20038;-65
2024/04/01 14:28:49;;;;;;;1.85;0.50;;;;;;;;;;4991869;28;20097;-66
2024/04/01 14:31:14;;;;;;;2.17;0.50;;;;;;;;;;5073779;28;20664;-65
2024/04/01 14:33:40;;;;;;;2.97;0.60;;;;;;;;;;5074102;28;20456;-65
2024/04/01 14:36:05;;;;;;;2.05;0.43;;;;;;;;;;5051134;28;20109;-65
2024/04/01 14:38:30;;;;;;;5.03;0.60;;;;;;;;;;4953167;28;20072;-64